GEX weather

Geelong Airport
Victoria, Australia

Public forecast

Using degrees Celsius for public forecast. Weather courtesy of forecast.io.

Closest aviation weather report (METAR) to Geelong Airport

Closest report is Avalon Airport, 12.9 nm (23.8 km) NNE. Retrieved 2019/10/19 03:30 UTC (0 seconds ago):

YMAV 190330Z AUTO 28021KT 9999 // SCT042 BKN056 BKN071 14/07 Q1016

Closest aviation forecast (TAF) to Geelong Airport

Closest forecast is Avalon Airport, 12.9 nm (23.8 km) NNE. Retrieved 2019-10-19 00:00 UTC (3 hours ago):

TAF YMAV 182327Z 1900/1924 27016G32KT 9999 -SHRA SCT040 FM190900 27012KT 9999 SCT040 FM191800 27014KT 9999 BKN040 INTER 1902/1907 5000 SHRA SCT025